createdAt,value
2019-02-05T00:01:21.437Z,7.53
2019-02-05T00:03:48.895Z,6.08
2019-02-05T00:06:16.268Z,6.25
2019-02-05T00:08:43.790Z,10.90
2019-02-05T00:11:11.004Z,8.70
2019-02-05T00:13:38.449Z,9.70
2019-02-05T00:16:05.829Z,9.43
2019-02-05T00:18:32.876Z,10.58
2019-02-05T00:21:00.153Z,9.20
2019-02-05T00:23:27.441Z,8.25
2019-02-05T00:26:05.661Z,8.70
2019-02-05T00:28:23.744Z,9.75
2019-02-05T00:30:50.857Z,9.35
2019-02-05T00:33:17.970Z,10.18
2019-02-05T00:35:47.342Z,8.33
2019-02-05T00:38:14.513Z,10.70
2019-02-05T00:40:41.703Z,8.63
2019-02-05T00:43:10.128Z,12.43
2019-02-05T00:45:38.538Z,10.05
2019-02-05T00:48:07.025Z,12.18
2019-02-05T00:50:35.158Z,10.05
2019-02-05T00:53:03.433Z,8.55
2019-02-05T00:55:31.637Z,10.70
2019-02-05T00:58:00.484Z,10.48
2019-02-05T01:00:29.472Z,14.98
2019-02-05T01:02:58.830Z,10.15
2019-02-05T01:05:27.382Z,12.90
2019-02-05T01:07:58.545Z,10.10
2019-02-05T01:10:26.295Z,11.73
2019-02-05T01:12:55.048Z,14.45
2019-02-05T01:15:24.157Z,12.18
2019-02-05T01:17:53.128Z,13.75
2019-02-05T01:20:21.846Z,13.58
2019-02-05T01:22:51.748Z,14.30
2019-02-05T01:25:20.151Z,14.63
2019-02-05T01:27:49.217Z,13.75
2019-02-05T01:30:21.578Z,15.68
2019-02-05T01:32:50.418Z,14.15
2019-02-05T01:35:19.041Z,15.95
2019-02-05T01:37:48.606Z,12.15
2019-02-05T01:40:18.916Z,14.15
2019-02-05T01:42:47.535Z,16.05
2019-02-05T01:45:16.740Z,13.25
2019-02-05T01:47:45.617Z,11.83
2019-02-05T01:50:16.545Z,16.65
2019-02-05T01:52:45.417Z,11.83
2019-02-05T01:55:14.318Z,12.20
2019-02-05T01:57:43.263Z,15.90
2019-02-05T02:00:18.749Z,14.73
2019-02-05T02:02:47.698Z,13.43
2019-02-05T02:05:16.622Z,15.20
2019-02-05T02:07:44.846Z,14.35
2019-02-05T02:10:16.170Z,12.85
2019-02-05T02:12:45.365Z,13.75
2019-02-05T02:15:14.542Z,14.20
2019-02-05T02:17:43.227Z,15.68
2019-02-05T02:20:13.865Z,12.13
2019-02-05T02:22:42.366Z,13.15
2019-02-05T02:25:11.412Z,14.47
2019-02-05T02:27:39.895Z,12.63
2019-02-05T02:30:15.285Z,14.70
2019-02-05T02:32:43.989Z,16.12
2019-02-05T02:35:12.378Z,13.53
2019-02-05T02:37:40.819Z,15.45
2019-02-05T02:40:10.377Z,15.60
2019-02-05T02:42:43.383Z,15.30
2019-02-05T02:45:12.233Z,14.18
2019-02-05T02:47:40.944Z,15.65
2019-02-05T02:50:11.337Z,13.20
2019-02-05T02:52:39.662Z,13.48
2019-02-05T02:55:09.323Z,17.73
2019-02-05T02:57:37.914Z,13.83
2019-02-05T03:00:09.378Z,11.80
2019-02-05T03:02:37.598Z,15.10
2019-02-05T03:05:08.801Z,11.80
2019-02-05T03:07:37.261Z,12.98
2019-02-05T03:10:10.059Z,10.68
2019-02-05T03:12:38.462Z,15.03
2019-02-05T03:15:07.519Z,16.93
2019-02-05T03:17:36.045Z,10.85
2019-02-05T03:20:04.745Z,11.05
2019-02-05T03:22:33.741Z,14.75
2019-02-05T03:25:02.700Z,12.93
2019-02-05T03:27:31.542Z,11.20
2019-02-05T03:29:59.962Z,15.13
2019-02-05T03:32:28.389Z,12.65
2019-02-05T03:34:57.097Z,12.50
2019-02-05T03:37:25.446Z,11.25
2019-02-05T03:39:53.730Z,15.68
2019-02-05T03:42:21.969Z,12.05
2019-02-05T03:44:50.116Z,13.43
2019-02-05T03:47:18.557Z,12.30
2019-02-05T03:49:46.798Z,11.12
2019-02-05T03:52:19.583Z,12.50
2019-02-05T03:55:14.151Z,12.43
2019-02-05T03:58:12.081Z,13.38
2019-02-05T04:01:15.833Z,12.88
2019-02-05T04:04:17.868Z,12.35
2019-02-05T04:07:05.737Z,11.43
2019-02-05T04:10:07.370Z,11.08
2019-02-05T04:13:07.802Z,14.53
2019-02-05T04:16:04.207Z,10.68
2019-02-05T04:19:20.274Z,10.55
2019-02-05T04:22:30.797Z,11.25
2019-02-05T04:25:41.681Z,8.25
2019-02-05T04:28:42.194Z,8.48
2019-02-05T04:32:00.858Z,10.25
2019-02-05T04:35:03.399Z,13.80
2019-02-05T04:38:20.643Z,9.60
2019-02-05T04:41:02.574Z,9.65
2019-02-05T04:43:53.939Z,10.93
2019-02-05T04:46:35.273Z,11.18
2019-02-05T04:50:03.697Z,10.48
2019-02-05T04:53:06.955Z,12.70
2019-02-05T04:56:17.738Z,11.70
2019-02-05T04:59:15.765Z,13.22
2019-02-05T05:02:28.499Z,11.40
2019-02-05T05:05:47.099Z,10.25
2019-02-05T05:09:14.571Z,13.13
2019-02-05T05:11:41.949Z,10.60
2019-02-05T05:14:09.565Z,10.93
2019-02-05T05:16:37.763Z,11.22
2019-02-05T05:19:05.624Z,12.43
2019-02-05T05:21:36.467Z,11.70
2019-02-05T05:24:03.864Z,15.93
2019-02-05T05:26:31.456Z,11.45
2019-02-05T05:28:59.080Z,12.40
2019-02-05T05:31:27.042Z,12.50
2019-02-05T05:33:55.448Z,15.15
2019-02-05T05:36:22.833Z,15.10
2019-02-05T05:38:49.957Z,13.95
2019-02-05T05:41:17.637Z,13.13
2019-02-05T05:43:44.893Z,15.10
2019-02-05T05:46:12.333Z,13.08
2019-02-05T05:48:39.756Z,14.28
2019-02-05T05:51:08.769Z,12.55
2019-02-05T05:53:35.868Z,14.05
2019-02-05T05:56:06.926Z,14.83
2019-02-05T05:58:34.681Z,14.68
2019-02-05T06:01:02.531Z,13.85
2019-02-05T06:03:29.646Z,14.85
2019-02-05T06:05:56.839Z,15.30
2019-02-05T06:08:24.241Z,16.37
2019-02-05T06:10:51.795Z,15.50
2019-02-05T06:13:19.149Z,16.82
2019-02-05T06:15:46.070Z,17.10
2019-02-05T06:18:13.952Z,16.27
2019-02-05T06:20:41.566Z,17.10
2019-02-05T06:23:09.000Z,17.30
2019-02-05T06:25:37.536Z,18.05
2019-02-05T06:28:04.816Z,19.92
2019-02-05T06:30:33.279Z,17.12
2019-02-05T06:33:02.222Z,19.15
2019-02-05T06:35:30.910Z,17.23
2019-02-05T06:38:03.596Z,17.85
2019-02-05T06:40:31.836Z,16.37
2019-02-05T06:43:00.433Z,19.20
2019-02-05T06:45:28.613Z,18.62
2019-02-05T06:47:56.728Z,20.82
2019-02-05T06:50:26.300Z,20.70
2019-02-05T06:52:55.005Z,19.55
2019-02-05T06:55:23.336Z,21.07
2019-02-05T06:57:51.805Z,21.85
2019-02-05T07:00:20.889Z,18.52
2019-02-05T07:02:53.709Z,23.40
2019-02-05T07:05:26.097Z,19.45
2019-02-05T07:07:53.417Z,22.70
2019-02-05T07:10:20.872Z,26.05
2019-02-05T07:12:48.686Z,19.77
2019-02-05T07:15:17.217Z,22.52
2019-02-05T07:17:49.659Z,21.85
2019-02-05T07:20:15.651Z,23.60
2019-02-05T07:22:43.952Z,22.07
2019-02-05T07:25:13.788Z,28.17
2019-02-05T07:27:41.908Z,26.62
2019-02-05T07:30:15.537Z,25.75
2019-02-05T07:32:44.179Z,31.12
2019-02-05T07:35:12.449Z,30.37
2019-02-05T07:37:40.821Z,26.87
2019-02-05T07:40:11.346Z,28.98
2019-02-05T07:42:40.704Z,25.75
2019-02-05T07:45:11.165Z,28.45
2019-02-05T07:47:39.830Z,27.82
2019-02-05T07:50:11.650Z,25.65
2019-02-05T07:52:40.656Z,29.27
2019-02-05T07:55:09.532Z,25.02
2019-02-05T07:57:37.901Z,31.73
2019-02-05T08:00:12.492Z,29.75
2019-02-05T08:02:39.800Z,30.65
2019-02-05T08:05:10.563Z,32.85
2019-02-05T08:07:38.760Z,27.50
2019-02-05T08:10:10.952Z,28.73
2019-02-05T08:12:38.027Z,29.70
2019-02-05T08:15:08.264Z,31.20
2019-02-05T08:17:37.218Z,29.32
2019-02-05T08:20:05.901Z,37.90
2019-02-05T08:22:34.057Z,33.33
2019-02-05T08:25:02.372Z,31.95
2019-02-05T08:27:30.459Z,31.62
2019-02-05T08:29:58.717Z,29.98
2019-02-05T08:32:26.724Z,30.52
2019-02-05T08:34:55.420Z,33.48
2019-02-05T08:37:23.443Z,25.70
2019-02-05T08:39:51.576Z,36.83
2019-02-05T08:42:20.208Z,29.95
2019-02-05T08:44:48.336Z,32.20
2019-02-05T08:47:16.343Z,37.10
2019-02-05T08:49:44.440Z,35.00
2019-02-05T08:52:12.553Z,38.23
2019-02-05T08:54:40.853Z,35.95
2019-02-05T08:57:08.871Z,42.45
2019-02-05T08:59:36.993Z,33.20
2019-02-05T09:02:05.694Z,31.77
2019-02-05T09:04:33.886Z,37.48
2019-02-05T09:07:02.211Z,41.05
2019-02-05T09:09:30.450Z,32.28
2019-02-05T09:12:00.238Z,31.68
2019-02-05T09:14:31.160Z,44.80
2019-02-05T09:16:59.589Z,38.48
2019-02-05T09:19:27.745Z,34.03
2019-02-05T09:22:02.741Z,34.73
2019-02-05T09:24:30.780Z,33.42
2019-02-05T09:26:59.009Z,34.67
2019-02-05T09:29:33.490Z,36.20
2019-02-05T09:31:57.153Z,35.23
2019-02-05T09:34:30.056Z,29.15
2019-02-05T09:36:58.231Z,27.17
2019-02-05T09:39:26.282Z,33.60
2019-02-05T09:41:54.488Z,34.50
2019-02-05T09:44:23.482Z,31.40
2019-02-05T09:46:56.398Z,34.95
2019-02-05T09:49:24.571Z,32.45
2019-02-05T09:51:52.775Z,28.60
2019-02-05T09:54:21.281Z,32.85
2019-02-05T09:56:49.527Z,28.17
2019-02-05T09:59:25.782Z,28.65
2019-02-05T10:01:52.706Z,27.07
2019-02-05T10:04:19.761Z,23.77
2019-02-05T10:06:50.004Z,31.25
2019-02-05T10:09:18.079Z,31.10
2019-02-05T10:11:48.186Z,29.35
2019-02-05T10:14:16.426Z,25.27
2019-02-05T10:16:45.060Z,28.52
2019-02-05T10:19:13.509Z,30.35
2019-02-05T10:21:41.669Z,33.15
2019-02-05T10:24:12.108Z,21.23
2019-02-05T10:26:40.190Z,24.20
2019-02-05T10:29:08.401Z,22.90
2019-02-05T10:31:36.853Z,24.25
2019-02-05T10:34:05.072Z,25.60
2019-02-05T10:36:34.113Z,25.15
2019-02-05T10:39:07.444Z,24.50
2019-02-05T10:41:35.676Z,21.35
2019-02-05T10:44:04.280Z,21.50
2019-02-05T10:46:32.428Z,21.77
2019-02-05T10:49:05.161Z,20.23
2019-02-05T10:51:33.732Z,21.68
2019-02-05T10:54:01.672Z,18.60
2019-02-05T10:56:29.622Z,21.45
2019-02-05T10:59:01.621Z,24.07
2019-02-05T11:01:30.333Z,21.12
2019-02-05T11:03:58.565Z,26.77
2019-02-05T11:06:26.944Z,19.57
2019-02-05T11:08:55.275Z,25.80
2019-02-05T11:11:24.675Z,20.75
2019-02-05T11:13:56.831Z,24.35
2019-02-05T11:16:25.137Z,35.05
2019-02-05T11:18:53.531Z,28.50
2019-02-05T11:22:03.465Z,25.00
2019-02-05T11:24:31.594Z,27.73
2019-02-05T11:27:00.096Z,23.47
2019-02-05T11:29:28.151Z,22.27
2019-02-05T11:31:56.477Z,20.37
2019-02-05T11:34:25.288Z,16.60
2019-02-05T11:36:53.498Z,21.87
2019-02-05T11:39:23.725Z,17.32
2019-02-05T11:41:50.845Z,22.10
2019-02-05T11:44:19.373Z,18.02
2019-02-05T11:46:47.753Z,26.45
2019-02-05T11:49:16.376Z,20.43
2019-02-05T11:51:47.744Z,23.35
2019-02-05T11:54:16.338Z,20.10
2019-02-05T11:56:44.544Z,19.77
2019-02-05T11:59:13.065Z,17.85
2019-02-05T12:01:41.805Z,16.23
2019-02-05T12:04:13.371Z,17.87
2019-02-05T12:06:41.922Z,17.37
2019-02-05T12:09:22.602Z,16.60
2019-02-05T12:11:53.970Z,16.15
2019-02-05T12:14:22.584Z,16.85
2019-02-05T12:16:50.921Z,17.15
2019-02-05T12:19:19.934Z,17.75
2019-02-05T12:21:48.498Z,22.50
2019-02-05T12:24:16.991Z,18.95
2019-02-05T12:26:46.090Z,18.70
2019-02-05T12:29:14.536Z,18.50
2019-02-05T12:31:43.234Z,15.60
2019-02-05T12:34:12.998Z,21.12
2019-02-05T12:36:43.563Z,19.12
2019-02-05T12:39:18.421Z,19.10
2019-02-05T12:41:47.108Z,19.35
2019-02-05T12:44:15.530Z,20.62
2019-02-05T12:46:44.142Z,19.52
2019-02-05T12:49:14.889Z,21.17
2019-02-05T12:51:43.343Z,25.97
2019-02-05T12:54:12.907Z,23.80
2019-02-05T12:56:41.225Z,21.35
2019-02-05T12:59:09.390Z,25.40
2019-02-05T13:01:41.023Z,22.58
2019-02-05T13:04:09.485Z,31.40
2019-02-05T13:06:37.655Z,28.35
2019-02-05T13:09:08.141Z,26.48
2019-02-05T13:11:36.699Z,23.05
2019-02-05T13:14:05.990Z,31.93
2019-02-05T13:16:34.377Z,25.02
2019-02-05T13:19:02.799Z,25.62
2019-02-05T13:21:31.438Z,25.08
2019-02-05T13:24:01.107Z,29.15
2019-02-05T13:26:32.022Z,25.57
2019-02-05T13:29:00.393Z,27.75
2019-02-05T13:31:28.516Z,29.57
2019-02-05T13:33:57.154Z,28.98
2019-02-05T13:36:25.424Z,26.65
2019-02-05T13:38:56.635Z,29.85
2019-02-05T13:41:25.338Z,30.43
2019-02-05T13:43:54.254Z,33.45
2019-02-05T13:46:23.027Z,32.10
2019-02-05T13:48:51.716Z,28.42
2019-02-05T13:51:21.354Z,32.30
2019-02-05T13:53:51.005Z,28.00
2019-02-05T13:56:19.379Z,28.30
2019-02-05T13:58:47.841Z,30.17
2019-02-05T14:01:19.921Z,29.57
2019-02-05T14:03:47.378Z,26.37
2019-02-05T14:06:15.664Z,26.85
2019-02-05T14:08:44.544Z,30.27
2019-02-05T14:11:13.757Z,28.87
2019-02-05T14:13:46.563Z,28.38
2019-02-05T14:16:15.042Z,27.52
2019-02-05T14:18:54.668Z,26.93
2019-02-05T14:21:15.046Z,27.67
2019-02-05T14:23:42.493Z,28.38
2019-02-05T14:26:15.681Z,28.75
2019-02-05T14:28:44.460Z,26.48
2019-02-05T14:31:12.903Z,29.10
2019-02-05T14:33:41.312Z,27.90
2019-02-05T14:36:09.657Z,27.35
2019-02-05T14:38:42.678Z,28.15
2019-02-05T14:41:11.334Z,22.55
2019-02-05T14:43:39.753Z,30.45
2019-02-05T14:46:08.134Z,28.05
2019-02-05T14:48:36.274Z,26.57
2019-02-05T14:51:09.527Z,30.20
2019-02-05T14:53:37.817Z,27.07
2019-02-05T14:56:05.900Z,30.88
2019-02-05T14:58:34.585Z,28.35
2019-02-05T15:01:03.276Z,29.18
2019-02-05T15:03:37.289Z,27.30
2019-02-05T15:06:06.203Z,31.90
2019-02-05T15:08:34.844Z,26.80
2019-02-05T15:11:04.172Z,31.07
2019-02-05T15:13:34.560Z,28.12
2019-02-05T15:16:06.900Z,26.30
2019-02-05T15:18:35.801Z,28.12
2019-02-05T15:21:04.431Z,28.05
2019-02-05T15:23:33.146Z,30.02
2019-02-05T15:26:04.749Z,26.20
2019-02-05T15:28:33.284Z,26.70
2019-02-05T15:31:01.886Z,25.12
2019-02-05T15:33:46.960Z,28.70
2019-02-05T15:36:17.541Z,27.55
2019-02-05T15:38:46.198Z,27.40
2019-02-05T15:41:16.171Z,27.67
2019-02-05T15:43:46.567Z,27.95
2019-02-05T15:46:15.411Z,31.55
2019-02-05T15:48:44.142Z,29.87
2019-02-05T15:51:12.629Z,27.45
2019-02-05T15:53:41.041Z,27.60
2019-02-05T15:56:10.437Z,29.23
2019-02-05T15:58:39.017Z,27.07
2019-02-05T16:01:07.647Z,30.15
2019-02-05T16:03:36.804Z,29.67
2019-02-05T16:06:05.138Z,30.95
2019-02-05T16:08:36.478Z,30.70
2019-02-05T16:11:04.982Z,29.42
2019-02-05T16:13:33.345Z,27.13
2019-02-05T16:16:02.049Z,32.85
2019-02-05T16:18:30.093Z,31.90
2019-02-05T16:20:58.597Z,32.85
2019-02-05T16:23:27.381Z,33.23
2019-02-05T16:25:55.822Z,34.70
2019-02-05T16:28:24.823Z,36.93
2019-02-05T16:30:53.482Z,34.58
2019-02-05T16:33:22.316Z,31.65
2019-02-05T16:35:51.013Z,34.13
2019-02-05T16:38:19.743Z,34.45
2019-02-05T16:40:48.626Z,31.75
2019-02-05T16:43:17.404Z,33.50
2019-02-05T16:45:46.158Z,32.83
2019-02-05T16:48:14.588Z,39.03
2019-02-05T16:50:44.077Z,34.63
2019-02-05T16:53:13.055Z,31.12
2019-02-05T16:55:41.649Z,37.30
2019-02-05T16:58:10.166Z,39.60
2019-02-05T17:00:38.670Z,54.03
2019-02-05T17:03:07.645Z,36.48
2019-02-05T17:05:37.445Z,39.37
2019-02-05T17:08:06.260Z,35.73
2019-02-05T17:10:34.550Z,32.05
2019-02-05T17:13:03.059Z,35.65
2019-02-05T17:15:31.701Z,39.40
2019-02-05T17:18:00.445Z,37.90
2019-02-05T17:20:29.518Z,35.20
2019-02-05T17:23:00.467Z,34.38
2019-02-05T17:25:28.753Z,37.17
2019-02-05T17:27:58.466Z,36.65
2019-02-05T17:30:29.389Z,35.90
2019-02-05T17:32:57.841Z,34.83
2019-02-05T17:35:26.392Z,35.30
2019-02-05T17:37:55.018Z,30.80
2019-02-05T17:40:24.437Z,35.15
2019-02-05T17:42:53.478Z,35.70
2019-02-05T17:45:27.274Z,32.65
2019-02-05T17:47:56.209Z,32.03
2019-02-05T17:50:23.855Z,36.10
2019-02-05T17:52:50.994Z,31.17
2019-02-05T17:55:19.698Z,28.42
2019-02-05T17:57:48.456Z,31.17
2019-02-05T18:00:19.528Z,29.10
2019-02-05T18:02:51.498Z,27.48
2019-02-05T18:05:18.434Z,29.20
2019-02-05T18:07:46.661Z,34.60
2019-02-05T18:10:16.985Z,32.60
2019-02-05T18:12:45.669Z,31.55
2019-02-05T18:15:21.996Z,26.85
2019-02-05T18:17:50.461Z,33.02
2019-02-05T18:20:18.513Z,26.15
2019-02-05T18:22:46.789Z,27.73
2019-02-05T18:25:18.350Z,25.85
2019-02-05T18:27:46.575Z,38.83
2019-02-05T18:30:23.409Z,27.55
2019-02-05T18:33:02.845Z,28.23
2019-02-05T18:35:20.657Z,26.50
2019-02-05T18:37:48.106Z,26.60
2019-02-05T18:40:17.351Z,29.87
2019-02-05T18:42:45.408Z,25.25
2019-02-05T18:45:14.527Z,29.60
2019-02-05T18:47:42.766Z,25.65
2019-02-05T18:50:14.171Z,26.23
2019-02-05T18:52:42.697Z,21.70
2019-02-05T18:55:10.965Z,28.60
2019-02-05T18:57:41.309Z,21.52
2019-02-05T19:00:21.618Z,22.45
2019-02-05T19:02:49.202Z,24.55
2019-02-05T19:05:16.789Z,23.92
2019-02-05T19:07:44.369Z,23.92
2019-02-05T19:10:12.839Z,24.02
2019-02-05T19:12:43.953Z,20.90
2019-02-05T19:15:17.343Z,23.20
2019-02-05T19:17:45.803Z,25.25
2019-02-05T19:20:14.257Z,24.77
2019-02-05T19:22:42.793Z,22.25
2019-02-05T19:25:18.725Z,23.62
2019-02-05T19:27:47.002Z,23.90
2019-02-05T19:30:15.426Z,28.87
2019-02-05T19:32:43.630Z,24.30
2019-02-05T19:35:11.771Z,26.07
2019-02-05T19:37:40.384Z,24.60
2019-02-05T19:40:08.641Z,28.32
2019-02-05T19:42:36.909Z,25.85
2019-02-05T19:45:19.915Z,27.60
2019-02-05T19:47:48.572Z,27.32
2019-02-05T19:50:16.969Z,27.20
2019-02-05T19:52:45.965Z,23.55
2019-02-05T19:55:14.273Z,26.10
2019-02-05T19:57:46.393Z,23.92
2019-02-05T20:00:14.762Z,30.17
2019-02-05T20:02:42.907Z,34.05
2019-02-05T20:05:11.282Z,33.20
2019-02-05T20:07:39.543Z,26.70
2019-02-05T20:10:09.461Z,31.40
2019-02-05T20:12:39.529Z,31.52
2019-02-05T20:15:08.388Z,41.13
2019-02-05T20:17:36.864Z,42.85
2019-02-05T20:20:05.804Z,31.10
2019-02-05T20:22:33.969Z,34.95
2019-02-05T20:25:02.611Z,44.83
2019-02-05T20:27:31.110Z,35.78
2019-02-05T20:29:59.291Z,44.03
2019-02-05T20:32:28.268Z,40.08
2019-02-05T20:34:56.593Z,38.50
2019-02-05T20:37:24.770Z,37.45
2019-02-05T20:39:52.960Z,34.08
2019-02-05T20:42:21.553Z,36.03
2019-02-05T20:44:49.805Z,43.17
2019-02-05T20:47:17.921Z,43.30
2019-02-05T20:49:46.265Z,28.67
2019-02-05T20:52:14.334Z,32.95
2019-02-05T20:54:43.049Z,37.42
2019-02-05T20:57:11.178Z,31.37
2019-02-05T20:59:39.400Z,30.05
2019-02-05T21:02:08.111Z,26.87
2019-02-05T21:04:47.942Z,33.23
2019-02-05T21:07:07.886Z,31.35
2019-02-05T21:09:36.819Z,29.25
2019-02-05T21:12:05.199Z,31.97
2019-02-05T21:14:33.838Z,31.57
2019-02-05T21:17:02.403Z,33.78
2019-02-05T21:19:30.869Z,34.83
2019-02-05T21:21:59.561Z,30.43
2019-02-05T21:24:28.230Z,32.08
2019-02-05T21:26:56.550Z,31.37
2019-02-05T21:29:25.401Z,31.12
2019-02-05T21:31:53.629Z,32.35
2019-02-05T21:34:21.914Z,29.40
2019-02-05T21:36:50.539Z,30.02
2019-02-05T21:39:18.653Z,25.17
2019-02-05T21:41:46.576Z,27.02
2019-02-05T21:44:14.841Z,28.52
2019-02-05T21:46:43.297Z,25.77
2019-02-05T21:49:11.900Z,25.88
2019-02-05T21:51:41.906Z,28.10
2019-02-05T21:54:10.353Z,29.15
2019-02-05T21:56:38.606Z,31.23
2019-02-05T21:59:06.877Z,30.77
2019-02-05T22:01:35.160Z,29.65
2019-02-05T22:04:03.764Z,29.52
2019-02-05T22:06:32.060Z,36.20
2019-02-05T22:09:00.766Z,35.38
2019-02-05T22:11:29.594Z,32.03
2019-02-05T22:13:57.496Z,33.08
2019-02-05T22:16:25.719Z,32.03
2019-02-05T22:18:53.961Z,35.05
2019-02-05T22:21:22.293Z,33.25
2019-02-05T22:23:51.657Z,29.98
2019-02-05T22:26:20.136Z,33.02
2019-02-05T22:28:48.713Z,28.92
2019-02-05T22:31:16.911Z,29.98
2019-02-05T22:33:45.238Z,28.15
2019-02-05T22:36:13.565Z,37.80
2019-02-05T22:38:41.597Z,35.52
2019-02-05T22:41:09.821Z,31.97
2019-02-05T22:43:37.937Z,27.75
2019-02-05T22:46:06.769Z,27.55
2019-02-05T22:48:35.195Z,27.82
2019-02-05T22:51:03.218Z,27.13
2019-02-05T22:53:33.709Z,27.90
2019-02-05T22:56:01.760Z,27.10
2019-02-05T22:58:29.794Z,27.02
2019-02-05T23:01:24.266Z,25.57
2019-02-05T23:03:57.670Z,26.48
2019-02-05T23:07:10.931Z,29.25
2019-02-05T23:10:35.120Z,29.90
2019-02-05T23:13:08.676Z,28.23
2019-02-05T23:15:40.585Z,28.23
2019-02-05T23:18:09.309Z,31.70
2019-02-05T23:20:37.580Z,28.20
2019-02-05T23:23:05.809Z,29.65
2019-02-05T23:25:34.461Z,28.52
2019-02-05T23:28:03.344Z,27.85
2019-02-05T23:30:31.712Z,26.75
2019-02-05T23:33:00.876Z,28.12
2019-02-05T23:35:32.430Z,28.70
2019-02-05T23:37:58.686Z,32.10
2019-02-05T23:40:27.082Z,28.55
2019-02-05T23:42:56.103Z,27.45
2019-02-05T23:45:24.334Z,28.15
2019-02-05T23:47:52.695Z,27.95
2019-02-05T23:50:21.210Z,29.42
2019-02-05T23:52:49.879Z,26.17
2019-02-05T23:55:19.219Z,24.67
2019-02-05T23:57:50.837Z,25.75
